ADDS METAR Data

Data at: 0745 UTC 24 Oct 2017

METAR for:KHYA (Hyannis/Barnstable M, MA, US)
Text:KHYA 240656Z AUTO 15007KT 10SM CLR 18/16 A3011 RMK AO2 SLP197 T01830161
Temperature: 18.3°C ( 65°F)
Dewpoint: 16.1°C ( 61°F) [RH = 87%]
Pressure (altimeter):30.11 inches Hg (1019.7 mb) [Sea level pressure: 1019.7 mb]
Winds:from the SSE (150 degrees) at 8 MPH (7 knots; 3.6 m/s)
Visibility:10 or more sm (16+ km)
Ceiling:at least 12,000 feet AGL
Clouds:sky clear below 12,000 feet AGL
QC Flag:automated observation with no human augmentation